LBPDLBBG

Guest
Details From LBPD - Plovdiv
To LBBG - Burgas
Flight Number -
Tags generated
Created
Modified
Stats Distance 122 nm / 226 km
Max Altitude 9,900 ft / 3,018 m
Waypoints 3
Social Downloads 1
Likes 0
Share VATSIM

Download

Looking for another format? Having issues loading an existing format? Contact us
Advertisement - Login to hide

Notes

Basic altitude profile: - Ascent Rate: 2500ft/min - Ascent Speed: 250kts - Cruise Altitude: 35000ft - Cruise Speed: 420kts - Descent Rate: 1500ft/min - Descent Speed: 250kts Options: - Use NATs: yes - Use PACOTS: yes - Use low airways: yes - Use high airways: yes

Route

LBPD GERGI LBBG

ID Type Via Altitude Latitude Longitude Leg Dist Tot Dist Heading (true) Name
O LBPD APT - 0 ft / 0 m 42.06786˚ 24.85081˚ - 0 nm - Plovdiv
GERGI FIX - 9,900 ft / 3,018 m 42.18333˚ 25.52194˚ 30 nm 30 nm 77° / 77° -
O LBBG APT - 0 ft / 0 m 42.57013˚ 27.51524˚ 91 nm 122 nm 75° / 76° Burgas

Altitude Profile

Advertisement - Login to hide

LBPD

Details ICAO LBPD (PDV)
Name Plovdiv
Region Bulgaria
Timezone Europe/Sofia (UTC+2.0)
Stats Elevation 597 ft / 182 m (AMSL)
Location 42.067856° 24.850814°
Runways 1
Magnetic Variation 5.066° E

METAR

LBPD 150500Z AUTO 00000KT 5000 BR NCD 00/M00 Q1013 TEMPO 2000 BR

Decode

TAF

TAF LBPD 142300Z 1500/1524 VRB04KT 4000 BR SCT070 BECMG 1501/1503 2000 BR PROB40 TEMPO 1503/1507 0800 BCFG BKN003 BECMG 1507/1509 5000 BR BKN015 BECMG 1510/1512 10010KT SCT050 BKN070

Decode

Departure Runways

ID Width Length Bearing (true) Bearing (mag) Surface Threshold Offset Overrun Length
12 164 ft / 50 m 8,200 ft / 2,500 m 127.33° 122.26° Asphalt 0 ft / 0 m 197 ft / 60 m
30 164 ft / 50 m 8,200 ft / 2,500 m 307.35° 302.28° Asphalt 0 ft / 0 m 295 ft / 90 m

LBBG

Details ICAO LBBG (BOJ)
Name Burgas
Region Bulgaria
Timezone Europe/Sofia (UTC+2.0)
Stats Elevation 135 ft / 41 m (AMSL)
Location 42.570130° 27.515240°
Runways 1
Magnetic Variation 5.503° E

METAR

LBBG 150500Z 24010KT 7000 FEW020 07/06 Q1013 TEMPO 3000 BR

Decode

TAF

TAF LBBG 142300Z 1500/1524 VRB04KT 4000 BR SCT010 BECMG 1500/1502 1500 BR TEMPO 1502/1507 0400 FG BKN002 BECMG 1507/1509 24010KT 9999 SCT007 BKN015 BECMG 1511/1513 14012KT SCT045 BECMG 1518/1520 23014KT

Decode

Destination Runways

ID Width Length Bearing (true) Bearing (mag) Surface Threshold Offset Overrun Length
04 148 ft / 45 m 10,502 ft / 3,201 m 44.28° 38.78° Concrete 0 ft / 0 m 190 ft / 58 m
22 148 ft / 45 m 10,502 ft / 3,201 m 224.29° 218.79° Concrete 0 ft / 0 m 190 ft / 58 m

Approach Navaids

Runway Type Ident Frequency Range Bearing (true) Bearing (mag) Slope Elevation
22 Localiser IBG 110.30 MHz 18 nm / 33 km 224.26° 218.76° - 135 ft / 41 m (AMSL)
22 Glidescope IBG 110.30 MHz 10 nm / 19 km 224.28° 218.78° 3.00° 135 ft / 41 m (AMSL)